createdAt,value
2018-12-07T00:00:17.459Z,56.53
2018-12-07T00:02:47.463Z,52.88
2018-12-07T00:05:15.430Z,52.98
2018-12-07T00:07:43.371Z,53.05
2018-12-07T00:10:11.326Z,53.98
2018-12-07T00:12:39.319Z,56.80
2018-12-07T00:15:07.557Z,51.70
2018-12-07T00:17:35.732Z,49.63
2018-12-07T00:20:04.592Z,48.08
2018-12-07T00:22:32.515Z,45.25
2018-12-07T00:25:00.444Z,43.48
2018-12-07T00:27:28.421Z,52.50
2018-12-07T00:29:56.396Z,52.33
2018-12-07T00:32:24.328Z,56.77
2018-12-07T00:34:52.302Z,46.60
2018-12-07T00:37:20.266Z,50.03
2018-12-07T00:39:48.217Z,54.80
2018-12-07T00:42:16.135Z,52.62
2018-12-07T00:44:44.086Z,52.98
2018-12-07T00:47:12.095Z,52.45
2018-12-07T00:49:40.090Z,54.70
2018-12-07T00:52:08.078Z,52.20
2018-12-07T00:54:36.042Z,50.65
2018-12-07T00:57:04.027Z,49.88
2018-12-07T00:59:32.005Z,52.85
2018-12-07T01:01:59.953Z,55.75
2018-12-07T01:04:27.922Z,48.00
2018-12-07T01:06:56.918Z,47.58
2018-12-07T01:09:24.918Z,49.38
2018-12-07T01:11:52.852Z,52.00
2018-12-07T01:14:20.810Z,50.35
2018-12-07T01:16:48.787Z,47.90
2018-12-07T01:19:16.787Z,41.70
2018-12-07T01:21:44.746Z,57.48
2018-12-07T01:24:12.832Z,49.23
2018-12-07T01:26:40.763Z,48.08
2018-12-07T01:29:08.741Z,46.48
2018-12-07T01:31:36.701Z,47.15
2018-12-07T01:34:04.683Z,42.15
2018-12-07T01:36:32.666Z,57.85
2018-12-07T01:39:00.624Z,52.88
2018-12-07T01:41:28.587Z,47.08
2018-12-07T01:43:56.524Z,50.80
2018-12-07T01:46:24.682Z,47.62
2018-12-07T01:48:52.681Z,43.85
2018-12-07T01:51:20.656Z,44.73
2018-12-07T01:53:48.637Z,49.18
2018-12-07T01:56:16.546Z,52.53
2018-12-07T01:58:45.705Z,48.90
2018-12-07T02:01:13.663Z,43.83
2018-12-07T02:03:41.632Z,47.38
2018-12-07T02:06:09.614Z,43.02
2018-12-07T02:08:38.606Z,53.63
2018-12-07T02:11:06.566Z,54.65
2018-12-07T02:13:34.623Z,53.25
2018-12-07T02:16:02.655Z,41.25
2018-12-07T02:18:30.647Z,49.70
2018-12-07T02:20:58.646Z,52.40
2018-12-07T02:23:27.075Z,48.28
2018-12-07T02:25:55.039Z,53.13
2018-12-07T02:28:23.002Z,47.17
2018-12-07T02:30:50.946Z,59.42
2018-12-07T02:33:18.913Z,54.77
2018-12-07T02:35:46.957Z,47.73
2018-12-07T02:38:14.912Z,52.73
2018-12-07T02:40:42.839Z,47.95
2018-12-07T02:43:10.782Z,54.90
2018-12-07T02:45:38.720Z,53.75
2018-12-07T02:48:06.672Z,52.23
2018-12-07T02:50:34.773Z,50.78
2018-12-07T02:53:02.731Z,46.65
2018-12-07T02:55:30.703Z,56.18
2018-12-07T02:57:58.650Z,55.38
2018-12-07T03:00:26.591Z,50.38
2018-12-07T03:02:54.527Z,49.25
2018-12-07T03:05:22.500Z,52.10
2018-12-07T03:07:50.469Z,58.15
2018-12-07T03:10:18.423Z,54.85
2018-12-07T03:12:46.393Z,52.95
2018-12-07T03:15:14.802Z,46.37
2018-12-07T03:17:43.579Z,45.95
2018-12-07T03:20:11.551Z,49.27
2018-12-07T03:22:39.513Z,50.52
2018-12-07T03:25:07.441Z,50.88
2018-12-07T03:27:35.396Z,54.18
2018-12-07T03:30:03.905Z,48.45
2018-12-07T03:32:31.893Z,47.83
2018-12-07T03:34:59.822Z,50.90
2018-12-07T03:37:27.776Z,50.43
2018-12-07T03:39:55.724Z,40.43
2018-12-07T03:42:23.664Z,50.38
2018-12-07T03:44:51.601Z,46.02
2018-12-07T03:47:19.569Z,47.62
2018-12-07T03:49:47.587Z,47.45
2018-12-07T03:52:15.542Z,48.52
2018-12-07T03:54:43.472Z,49.18
2018-12-07T03:57:11.421Z,51.15
2018-12-07T03:59:39.338Z,54.63
2018-12-07T04:02:07.478Z,47.67
2018-12-07T04:04:35.416Z,53.38
2018-12-07T04:07:03.327Z,47.03
2018-12-07T04:09:31.278Z,46.18
2018-12-07T04:11:59.274Z,50.00
2018-12-07T04:14:27.242Z,55.20
2018-12-07T04:16:55.173Z,50.15
2018-12-07T04:19:23.450Z,47.30
2018-12-07T04:21:51.417Z,43.90
2018-12-07T04:24:19.400Z,45.30
2018-12-07T04:26:47.327Z,46.25
2018-12-07T04:29:15.274Z,44.00
2018-12-07T04:31:43.244Z,44.45
2018-12-07T04:34:11.240Z,41.73
2018-12-07T04:36:39.230Z,42.73
2018-12-07T04:39:07.212Z,45.17
2018-12-07T04:41:35.149Z,46.98
2018-12-07T04:44:03.123Z,48.42
2018-12-07T04:46:33.114Z,53.05
2018-12-07T04:49:01.148Z,45.80
2018-12-07T04:51:29.158Z,45.73
2018-12-07T04:53:57.122Z,47.98
2018-12-07T04:56:25.075Z,47.45
2018-12-07T04:58:53.029Z,45.78
2018-12-07T05:01:20.975Z,45.17
2018-12-07T05:03:48.932Z,46.88
2018-12-07T05:06:16.879Z,45.55
2018-12-07T05:08:44.837Z,42.60
2018-12-07T05:11:12.809Z,44.15
2018-12-07T05:13:40.774Z,41.98
2018-12-07T05:16:08.715Z,49.93
2018-12-07T05:18:36.663Z,48.10
2018-12-07T05:21:04.684Z,49.63
2018-12-07T05:23:32.676Z,49.23
2018-12-07T05:26:00.634Z,51.00
2018-12-07T05:28:28.641Z,51.33
2018-12-07T05:30:56.591Z,51.45
2018-12-07T05:33:24.534Z,50.10
2018-12-07T05:35:52.491Z,51.70
2018-12-07T05:38:20.413Z,49.60
2018-12-07T05:40:48.347Z,47.00
2018-12-07T05:43:16.312Z,50.48
2018-12-07T05:45:44.238Z,51.37
2018-12-07T05:48:13.223Z,42.38
2018-12-07T05:50:41.174Z,44.20
2018-12-07T05:53:09.113Z,42.25
2018-12-07T05:55:37.132Z,40.88
2018-12-07T05:58:05.067Z,42.13
2018-12-07T06:00:33.023Z,40.92
2018-12-07T06:03:01.061Z,38.95
2018-12-07T06:05:29.000Z,37.13
2018-12-07T06:07:56.961Z,40.88
2018-12-07T06:10:24.954Z,45.95
2018-12-07T06:12:52.922Z,44.05
2018-12-07T06:15:20.843Z,40.05
2018-12-07T06:17:50.233Z,39.53
2018-12-07T06:20:18.343Z,40.40
2018-12-07T06:22:46.287Z,31.20
2018-12-07T06:25:14.283Z,30.77
2018-12-07T06:27:42.379Z,41.18
2018-12-07T06:30:10.520Z,37.93
2018-12-07T06:32:38.502Z,43.95
2018-12-07T06:35:06.526Z,60.00
2018-12-07T06:37:34.494Z,47.53
2018-12-07T06:40:02.464Z,51.68
2018-12-07T06:42:30.421Z,41.98
2018-12-07T06:44:58.393Z,47.93
2018-12-07T06:47:26.446Z,53.10
2018-12-07T06:49:54.476Z,50.23
2018-12-07T06:52:22.423Z,54.00
2018-12-07T06:54:51.483Z,49.35
2018-12-07T06:57:19.435Z,40.92
2018-12-07T06:59:47.444Z,47.98
2018-12-07T07:02:15.455Z,46.35
2018-12-07T07:04:43.406Z,48.48
2018-12-07T07:07:11.365Z,44.73
2018-12-07T07:09:39.359Z,48.87
2018-12-07T07:12:07.407Z,45.10
2018-12-07T07:14:35.349Z,68.28
2018-12-07T07:17:03.456Z,54.58
2018-12-07T07:19:31.450Z,46.73
2018-12-07T07:21:59.530Z,47.98
2018-12-07T07:24:27.555Z,44.35
2018-12-07T07:26:55.534Z,45.52
2018-12-07T07:29:23.497Z,49.15
2018-12-07T07:31:51.462Z,42.90
2018-12-07T07:34:19.641Z,42.58
2018-12-07T07:36:47.861Z,45.80
2018-12-07T07:39:16.157Z,45.50
2018-12-07T07:41:44.079Z,54.23
2018-12-07T07:46:50.215Z,48.95
2018-12-07T07:49:18.147Z,45.08
2018-12-07T07:51:46.118Z,45.67
2018-12-07T07:54:15.207Z,40.45
2018-12-07T07:56:43.194Z,53.58
2018-12-07T07:59:11.234Z,43.90
2018-12-07T08:01:39.226Z,42.05
2018-12-07T08:04:07.176Z,47.58
2018-12-07T08:06:42.215Z,45.00
2018-12-07T08:09:10.193Z,38.13
2018-12-07T08:11:38.174Z,42.33
2018-12-07T08:14:06.192Z,46.70
2018-12-07T08:16:34.130Z,43.63
2018-12-07T08:19:02.098Z,45.67
2018-12-07T08:21:30.118Z,54.15
2018-12-07T08:23:58.125Z,40.40
2018-12-07T08:26:26.102Z,42.90
2018-12-07T08:28:54.109Z,49.15
2018-12-07T08:31:22.069Z,45.75
2018-12-07T08:33:50.060Z,45.78
2018-12-07T08:36:18.037Z,44.35
2018-12-07T08:38:46.000Z,45.15
2018-12-07T08:41:13.929Z,44.73
2018-12-07T08:43:41.844Z,45.55
2018-12-07T08:46:09.831Z,52.38
2018-12-07T08:48:37.767Z,46.48
2018-12-07T08:51:05.909Z,44.73
2018-12-07T08:53:33.922Z,38.57
2018-12-07T08:56:01.908Z,42.23
2018-12-07T08:58:30.949Z,39.58
2018-12-07T09:00:59.017Z,56.20
2018-12-07T09:03:26.945Z,48.47
2018-12-07T09:05:54.900Z,47.33
2018-12-07T09:08:22.895Z,45.55
2018-12-07T09:10:50.838Z,43.20
2018-12-07T09:13:19.942Z,45.97
2018-12-07T09:15:47.977Z,46.43
2018-12-07T09:18:15.927Z,46.50
2018-12-07T09:20:43.863Z,52.23
2018-12-07T09:23:11.931Z,47.00
2018-12-07T09:25:39.905Z,49.18
2018-12-07T09:28:07.905Z,49.85
2018-12-07T09:30:35.866Z,48.43
2018-12-07T09:33:03.845Z,50.98
2018-12-07T09:35:31.823Z,42.53
2018-12-07T09:37:59.818Z,36.30
2018-12-07T09:40:27.793Z,44.53
2018-12-07T09:42:55.810Z,46.70
2018-12-07T09:45:23.816Z,49.83
2018-12-07T09:47:51.789Z,49.95
2018-12-07T09:50:19.738Z,47.35
2018-12-07T09:52:47.703Z,49.08
2018-12-07T09:55:15.647Z,41.13
2018-12-07T09:57:43.625Z,54.20
2018-12-07T10:00:11.797Z,52.10
2018-12-07T10:02:39.815Z,43.40
2018-12-07T10:05:07.941Z,44.67
2018-12-07T10:07:36.203Z,53.80
2018-12-07T10:10:04.247Z,53.35
2018-12-07T10:12:32.212Z,52.50
2018-12-07T10:15:00.181Z,39.67
2018-12-07T10:17:28.125Z,42.93
2018-12-07T10:19:56.071Z,44.10
2018-12-07T10:22:24.033Z,48.43
2018-12-07T10:24:51.985Z,42.00
2018-12-07T10:27:20.033Z,38.53
2018-12-07T10:29:48.006Z,46.07
2018-12-07T10:32:16.094Z,32.70
2018-12-07T10:34:44.167Z,38.80
2018-12-07T10:37:12.127Z,42.53
2018-12-07T10:39:40.041Z,41.17
2018-12-07T10:42:08.044Z,39.27
2018-12-07T10:44:36.011Z,41.30
2018-12-07T10:47:04.314Z,40.97
2018-12-07T10:49:32.254Z,35.47
2018-12-07T10:52:00.258Z,42.50
2018-12-07T10:54:29.381Z,38.60
2018-12-07T10:57:00.614Z,36.53
2018-12-07T10:59:28.544Z,38.27
2018-12-07T11:02:02.041Z,40.07
2018-12-07T11:04:35.522Z,37.67
2018-12-07T11:07:09.431Z,32.90
2018-12-07T11:09:47.771Z,41.13
2018-12-07T11:12:21.474Z,38.37
2018-12-07T11:14:54.939Z,39.00
2018-12-07T11:17:28.369Z,34.73
2018-12-07T11:20:01.733Z,35.37
2018-12-07T11:22:36.454Z,36.20
2018-12-07T11:25:10.321Z,31.30
2018-12-07T11:27:43.814Z,35.10
2018-12-07T11:30:17.447Z,39.07
2018-12-07T11:32:51.029Z,35.17
2018-12-07T11:35:24.380Z,29.80
2018-12-07T11:37:52.493Z,33.00
2018-12-07T11:40:20.583Z,38.50
2018-12-07T11:42:50.601Z,40.10
2018-12-07T11:45:18.622Z,32.37
2018-12-07T11:47:46.571Z,36.33
2018-12-07T11:50:14.595Z,32.80
2018-12-07T11:52:50.568Z,33.73
2018-12-07T11:55:24.986Z,34.63
2018-12-07T11:57:52.989Z,34.83
2018-12-07T12:00:20.958Z,32.37
2018-12-07T12:02:48.912Z,38.07
2018-12-07T12:05:16.981Z,37.77
2018-12-07T12:07:44.961Z,37.23
2018-12-07T12:10:13.132Z,39.90
2018-12-07T12:12:42.567Z,38.07
2018-12-07T12:15:10.744Z,34.73
2018-12-07T12:17:38.750Z,46.73
2018-12-07T12:20:07.370Z,38.87
2018-12-07T12:22:35.411Z,36.03
2018-12-07T12:25:03.521Z,36.97
2018-12-07T12:27:31.496Z,38.57
2018-12-07T12:29:59.442Z,37.77
2018-12-07T12:32:27.428Z,46.77
2018-12-07T12:34:55.442Z,34.60
2018-12-07T12:37:23.454Z,34.73
2018-12-07T12:39:51.419Z,31.60
2018-12-07T12:42:19.435Z,38.83
2018-12-07T12:44:47.374Z,32.17
2018-12-07T12:47:15.378Z,43.13
2018-12-07T12:49:43.490Z,36.40
2018-12-07T12:52:11.467Z,33.97
2018-12-07T12:54:39.578Z,40.43
2018-12-07T12:57:07.593Z,29.57
2018-12-07T12:59:35.531Z,38.97
2018-12-07T13:02:03.670Z,44.60
2018-12-07T13:04:31.718Z,34.23
2018-12-07T13:06:59.662Z,31.40
2018-12-07T13:09:27.709Z,31.93
2018-12-07T13:11:55.718Z,38.67
2018-12-07T13:14:24.826Z,36.80
2018-12-07T13:16:52.788Z,31.67
2018-12-07T13:19:20.747Z,38.07
2018-12-07T13:21:48.688Z,31.03
2018-12-07T13:24:16.701Z,36.17
2018-12-07T13:26:44.665Z,35.77
2018-12-07T13:29:12.641Z,27.23
2018-12-07T13:31:40.579Z,26.60
2018-12-07T13:34:08.598Z,28.63
2018-12-07T13:36:36.545Z,28.20
2018-12-07T13:39:06.831Z,41.97
2018-12-07T13:41:35.935Z,23.77
2018-12-07T13:44:04.049Z,22.50
2018-12-07T13:46:32.194Z,24.03
2018-12-07T13:49:00.266Z,24.80
2018-12-07T13:51:29.293Z,22.07
2018-12-07T13:53:57.459Z,18.17
2018-12-07T13:56:25.479Z,20.43
2018-12-07T13:58:53.536Z,22.10
2018-12-07T14:01:21.760Z,19.03
2018-12-07T14:03:49.962Z,22.70
2018-12-07T14:06:18.096Z,23.87
2018-12-07T14:08:46.297Z,26.73
2018-12-07T14:11:14.346Z,25.03
2018-12-07T14:13:42.457Z,23.27
2018-12-07T14:16:10.542Z,25.47
2018-12-07T14:18:38.651Z,29.37
2018-12-07T14:21:06.719Z,26.60
2018-12-07T14:23:35.880Z,30.93
2018-12-07T14:26:04.178Z,24.60
2018-12-07T14:28:32.320Z,36.50
2018-12-07T14:31:00.487Z,32.87
2018-12-07T14:33:28.679Z,27.47
2018-12-07T14:35:56.881Z,24.90
2018-12-07T14:38:25.140Z,23.00
2018-12-07T14:40:53.401Z,24.20
2018-12-07T14:43:21.527Z,26.27
2018-12-07T14:45:49.593Z,25.97
2018-12-07T14:48:17.696Z,29.07
2018-12-07T14:50:45.764Z,30.27
2018-12-07T14:53:14.001Z,33.90
2018-12-07T14:55:42.222Z,30.87
2018-12-07T14:58:10.431Z,34.03
2018-12-07T15:00:38.478Z,28.77
2018-12-07T15:03:06.777Z,32.43
2018-12-07T15:05:35.066Z,28.10
2018-12-07T15:08:03.340Z,30.57
2018-12-07T15:10:31.366Z,32.03
2018-12-07T15:12:59.691Z,27.30
2018-12-07T15:15:27.859Z,30.60
2018-12-07T15:17:56.132Z,31.03
2018-12-07T15:20:24.244Z,33.77
2018-12-07T15:22:52.242Z,26.13
2018-12-07T15:25:21.076Z,33.53
2018-12-07T15:27:49.265Z,40.50
2018-12-07T15:30:17.560Z,33.60
2018-12-07T15:32:45.902Z,28.10
2018-12-07T15:35:14.213Z,32.97
2018-12-07T15:37:42.264Z,34.07
2018-12-07T15:40:10.783Z,31.50
2018-12-07T15:42:39.878Z,36.17
2018-12-07T15:45:08.636Z,35.28
2018-12-07T15:47:36.722Z,33.77
2018-12-07T15:50:06.498Z,30.62
2018-12-07T15:52:34.863Z,29.63
2018-12-07T15:55:03.117Z,38.53
2018-12-07T15:57:31.261Z,36.93
2018-12-07T15:59:59.314Z,35.60
2018-12-07T16:02:27.505Z,36.23
2018-12-07T16:04:55.654Z,44.60
2018-12-07T16:07:23.925Z,50.25
2018-12-07T16:09:52.020Z,43.73
2018-12-07T16:12:20.327Z,36.67
2018-12-07T16:14:48.543Z,37.63
2018-12-07T16:17:16.711Z,41.90
2018-12-07T16:19:44.841Z,40.40
2018-12-07T16:22:12.972Z,36.35
2018-12-07T16:24:41.097Z,43.40
2018-12-07T16:27:09.691Z,35.08
2018-12-07T16:29:38.171Z,42.70
2018-12-07T16:32:06.209Z,36.15
2018-12-07T16:34:34.356Z,40.65
2018-12-07T16:37:02.410Z,34.45
2018-12-07T16:39:30.413Z,33.92
2018-12-07T16:41:58.626Z,38.95
2018-12-07T16:44:26.762Z,37.73
2018-12-07T16:46:56.158Z,39.80
2018-12-07T16:49:24.322Z,34.95
2018-12-07T16:51:52.427Z,38.05
2018-12-07T16:54:20.758Z,49.33
2018-12-07T16:56:49.061Z,37.60
2018-12-07T16:59:17.396Z,35.35
2018-12-07T17:01:45.639Z,35.00
2018-12-07T17:04:14.112Z,42.97
2018-12-07T17:06:42.263Z,37.08
2018-12-07T17:09:10.293Z,39.90
2018-12-07T17:11:38.470Z,36.53
2018-12-07T17:14:06.742Z,37.60
2018-12-07T17:16:34.969Z,36.90
2018-12-07T17:19:03.297Z,31.83
2018-12-07T17:21:31.394Z,34.58
2018-12-07T17:23:59.563Z,45.08
2018-12-07T17:26:27.740Z,36.20
2018-12-07T17:28:55.960Z,35.40
2018-12-07T17:31:24.319Z,31.60
2018-12-07T17:33:52.534Z,33.50
2018-12-07T17:36:20.651Z,33.00
2018-12-07T17:38:48.958Z,34.08
2018-12-07T17:41:17.302Z,40.70
2018-12-07T17:43:45.635Z,40.80
2018-12-07T17:46:14.111Z,37.55
2018-12-07T17:48:42.434Z,43.00
2018-12-07T17:51:10.620Z,40.52
2018-12-07T17:53:38.936Z,47.15
2018-12-07T17:56:07.165Z,48.83
2018-12-07T17:58:35.657Z,40.03
2018-12-07T18:01:03.843Z,39.03
2018-12-07T18:03:31.966Z,41.58
2018-12-07T18:06:00.158Z,38.80
2018-12-07T18:08:28.479Z,44.80
2018-12-07T18:10:56.640Z,51.88
2018-12-07T18:13:24.772Z,42.90
2018-12-07T18:15:52.870Z,42.48
2018-12-07T18:18:21.558Z,46.30
2018-12-07T18:20:50.128Z,49.60
2018-12-07T18:23:19.340Z,39.20
2018-12-07T18:25:47.589Z,50.33
2018-12-07T18:28:15.733Z,39.83
2018-12-07T18:30:44.027Z,41.15
2018-12-07T18:33:12.224Z,37.53
2018-12-07T18:35:40.403Z,38.38
2018-12-07T18:38:08.557Z,42.05
2018-12-07T18:40:36.691Z,41.28
2018-12-07T18:43:04.849Z,37.40
2018-12-07T18:45:33.186Z,40.10
2018-12-07T18:48:01.632Z,37.20
2018-12-07T18:50:29.839Z,42.05
2018-12-07T18:52:57.982Z,40.70
2018-12-07T18:55:26.073Z,44.80
2018-12-07T18:57:54.351Z,42.60
2018-12-07T19:00:22.812Z,43.48
2018-12-07T19:02:51.130Z,43.20
2018-12-07T19:05:19.191Z,50.80
2018-12-07T19:07:47.479Z,46.88
2018-12-07T19:10:15.740Z,47.90
2018-12-07T19:12:43.979Z,52.17
2018-12-07T19:15:12.482Z,44.63
2018-12-07T19:17:40.923Z,41.70
2018-12-07T19:20:09.375Z,39.98
2018-12-07T19:22:37.727Z,41.13
2018-12-07T19:25:06.702Z,42.75
2018-12-07T19:27:34.899Z,46.55
2018-12-07T19:30:03.212Z,48.60
2018-12-07T19:32:31.426Z,47.00
2018-12-07T19:34:59.714Z,47.13
2018-12-07T19:37:28.310Z,42.40
2018-12-07T19:39:56.670Z,45.95
2018-12-07T19:42:25.068Z,47.15
2018-12-07T19:44:53.302Z,47.43
2018-12-07T19:47:21.623Z,44.83
2018-12-07T19:49:49.970Z,46.47
2018-12-07T19:52:18.436Z,43.70
2018-12-07T19:54:46.644Z,44.05
2018-12-07T19:57:14.788Z,39.53
2018-12-07T19:59:42.868Z,40.92
2018-12-07T20:02:11.182Z,41.48
2018-12-07T20:04:39.526Z,37.17
2018-12-07T20:07:07.897Z,36.53
2018-12-07T20:09:36.114Z,39.63
2018-12-07T20:12:04.465Z,35.90
2018-12-07T20:14:32.516Z,36.98
2018-12-07T20:17:00.543Z,60.33
2018-12-07T20:19:28.633Z,51.45
2018-12-07T20:21:56.746Z,54.58
2018-12-07T20:24:24.912Z,57.05
2018-12-07T20:26:53.288Z,50.03
2018-12-07T20:29:22.905Z,51.88
2018-12-07T20:31:51.086Z,54.65
2018-12-07T20:34:19.319Z,51.37
2018-12-07T20:36:47.642Z,54.08
2018-12-07T20:39:15.705Z,44.65
2018-12-07T20:41:43.736Z,49.33
2018-12-07T20:44:11.940Z,50.35
2018-12-07T20:46:40.121Z,47.90
2018-12-07T20:49:08.234Z,48.48
2018-12-07T20:51:36.634Z,42.73
2018-12-07T20:54:04.744Z,46.77
2018-12-07T20:56:33.319Z,41.35
2018-12-07T20:59:01.703Z,46.20
2018-12-07T21:01:30.305Z,49.65
2018-12-07T21:04:19.464Z,45.15
2018-12-07T21:06:58.781Z,50.40
2018-12-07T21:09:30.784Z,47.85
2018-12-07T21:12:07.634Z,51.35
2018-12-07T21:14:39.558Z,48.98
2018-12-07T21:17:11.260Z,44.75
2018-12-07T21:19:43.322Z,47.45
2018-12-07T21:22:12.194Z,46.23
2018-12-07T21:24:40.491Z,43.20
2018-12-07T21:27:08.709Z,43.98
2018-12-07T21:29:37.095Z,44.18
2018-12-07T21:32:06.918Z,52.48
2018-12-07T21:34:40.941Z,48.20
2018-12-07T21:37:09.450Z,48.83
2018-12-07T21:39:44.133Z,43.08
2018-12-07T21:42:12.609Z,42.88
2018-12-07T21:44:40.922Z,45.08
2018-12-07T21:47:09.078Z,49.10
2018-12-07T21:49:41.781Z,40.80
2018-12-07T21:52:11.776Z,42.05
2018-12-07T21:54:39.938Z,45.15
2018-12-07T21:57:08.085Z,43.10
2018-12-07T21:59:36.336Z,37.05
2018-12-07T22:02:04.590Z,45.05
2018-12-07T22:04:32.711Z,43.13
2018-12-07T22:07:01.062Z,36.08
2018-12-07T22:09:29.275Z,31.73
2018-12-07T22:11:57.567Z,38.17
2018-12-07T22:14:25.815Z,45.30
2018-12-07T22:16:53.817Z,34.27
2018-12-07T22:19:21.996Z,34.97
2018-12-07T22:21:50.174Z,34.83
2018-12-07T22:24:18.283Z,26.77
2018-12-07T22:26:46.609Z,38.17
2018-12-07T22:29:14.926Z,27.93
2018-12-07T22:31:42.972Z,32.28
2018-12-07T22:34:11.081Z,29.98
2018-12-07T22:36:39.283Z,34.13
2018-12-07T22:39:07.915Z,36.15
2018-12-07T22:41:36.460Z,43.17
2018-12-07T22:44:04.646Z,37.45
2018-12-07T22:46:32.963Z,45.33
2018-12-07T22:49:01.122Z,45.10
2018-12-07T22:51:30.747Z,42.75
2018-12-07T22:53:59.136Z,40.52
2018-12-07T22:56:27.152Z,48.78
2018-12-07T22:58:55.175Z,49.95
2018-12-07T23:01:23.244Z,41.98
2018-12-07T23:03:51.270Z,41.75
2018-12-07T23:06:19.347Z,51.58
2018-12-07T23:08:47.381Z,49.53
2018-12-07T23:11:15.479Z,48.63
2018-12-07T23:13:43.480Z,41.28
2018-12-07T23:16:11.642Z,42.05
2018-12-07T23:18:39.706Z,45.43
2018-12-07T23:21:07.707Z,46.58
2018-12-07T23:23:35.857Z,41.58
2018-12-07T23:26:04.012Z,44.10
2018-12-07T23:28:32.149Z,42.85
2018-12-07T23:31:00.109Z,44.05
2018-12-07T23:33:28.280Z,44.35
2018-12-07T23:35:56.335Z,44.38
2018-12-07T23:38:24.403Z,47.43
2018-12-07T23:40:52.419Z,43.63
2018-12-07T23:43:20.422Z,42.20
2018-12-07T23:45:48.447Z,42.95
2018-12-07T23:48:16.465Z,44.27
2018-12-07T23:50:44.482Z,43.52
2018-12-07T23:53:12.461Z,45.58
2018-12-07T23:55:40.420Z,46.20
2018-12-07T23:58:08.416Z,46.90
